IBE732 EHAM-LEMD
Flight info
| Callsign | IBE732 |
|---|---|
| Flight time | N/A |
| Altitude | 23000 |
| Route | WOODY N872 CIV/N0450F350 N872 MEDIL DCT KOVIN DCT DUCRA DCT RESMI DCT DEKOD DCT DISAK DCT ARKIP DCT ARNAV DCT LMG DCT UVELI DCT OSMOB DCT ARVID DCT PPN DCT NOLSA DCT ALEPO DCT VASUM N10 BANEV |
| Aircraft | A320/M-SDE3FGHIRWY/LB1 |
Departure
| Time | 2026-04-28 11:18 |
|---|---|
| Airport | Amsterdam Airport Schiphol (EHAM) |
Arrival
| Time | N/A |
|---|---|
| Airport | Adolfo Suárez Madrid–Barajas Airport (LEMD) |
| Time | Latitude | Longitude | Altitude | Speed | Heading |
|---|---|---|---|---|---|
| 2026-04-28 10:55 | 52.30539 | 4.76516 | -1 ft | 0 kts | 58° |
| 2026-04-28 11:07 | 52.30531 | 4.76493 | -1 ft | 4 kts | 64° |
| 2026-04-28 11:07 | 52.30522 | 4.76453 | -1 ft | 4 kts | 86° |
| 2026-04-28 11:08 | 52.30527 | 4.76415 | -1 ft | 3 kts | 144° |
| 2026-04-28 11:08 | 52.30533 | 4.76408 | -1 ft | 0 kts | 148° |
| 2026-04-28 11:10 | 52.30533 | 4.76409 | -1 ft | 1 kts | 148° |
| 2026-04-28 11:11 | 52.30448 | 4.76495 | -1 ft | 21 kts | 148° |
| 2026-04-28 11:11 | 52.30369 | 4.76577 | -1 ft | 11 kts | 149° |
| 2026-04-28 11:11 | 52.30305 | 4.76553 | -1 ft | 12 kts | 232° |
| 2026-04-28 11:11 | 52.30258 | 4.76432 | -1 ft | 12 kts | 238° |
| 2026-04-28 11:12 | 52.30217 | 4.76322 | -1 ft | 12 kts | 238° |
| 2026-04-28 11:12 | 52.30164 | 4.76183 | -1 ft | 16 kts | 238° |
| 2026-04-28 11:12 | 52.30110 | 4.76041 | -1 ft | 14 kts | 238° |
| 2026-04-28 11:12 | 52.30062 | 4.75915 | -1 ft | 12 kts | 238° |
| 2026-04-28 11:13 | 52.30009 | 4.75776 | -1 ft | 19 kts | 238° |
| 2026-04-28 11:13 | 52.29939 | 4.75594 | -1 ft | 18 kts | 238° |
| 2026-04-28 11:13 | 52.29877 | 4.75432 | -1 ft | 16 kts | 238° |
| 2026-04-28 11:13 | 52.29834 | 4.75282 | -1 ft | 14 kts | 263° |
| 2026-04-28 11:14 | 52.29862 | 4.75155 | -1 ft | 11 kts | 311° |
| 2026-04-28 11:14 | 52.29921 | 4.75043 | -1 ft | 16 kts | 310° |
| 2026-04-28 11:14 | 52.30011 | 4.74871 | -1 ft | 24 kts | 311° |
| 2026-04-28 11:14 | 52.30129 | 4.74657 | 10 ft | 23 kts | 312° |
| 2026-04-28 11:15 | 52.30235 | 4.74466 | 11 ft | 23 kts | 312° |
| 2026-04-28 11:15 | 52.30352 | 4.74256 | -1 ft | 18 kts | 314° |
| 2026-04-28 11:15 | 52.30451 | 4.74191 | -1 ft | 16 kts | 359° |
| 2026-04-28 11:15 | 52.30563 | 4.74186 | -1 ft | 16 kts | 328° |
| 2026-04-28 11:16 | 52.30580 | 4.74084 | -1 ft | 8 kts | 279° |
| 2026-04-28 11:16 | 52.30593 | 4.74000 | -1 ft | 7 kts | 287° |
| 2026-04-28 11:16 | 52.30613 | 4.73933 | -1 ft | 9 kts | 320° |
| 2026-04-28 11:16 | 52.30720 | 4.73833 | -2 ft | 17 kts | 332° |
| 2026-04-28 11:17 | 52.30792 | 4.73792 | -1 ft | 16 kts | 359° |
| 2026-04-28 11:17 | 52.30946 | 4.73809 | -1 ft | 45 kts | 3° |
| 2026-04-28 11:17 | 52.31544 | 4.73860 | -3 ft | 125 kts | 3° |
| 2026-04-28 11:17 | 52.33012 | 4.74026 | 327 ft | 175 kts | 6° |
| 2026-04-28 11:18 | 52.33813 | 4.74236 | 954 ft | 174 kts | 22° |
| 2026-04-28 11:18 | 52.34924 | 4.75001 | 1738 ft | 175 kts | 25° |
| 2026-04-28 11:18 | 52.36104 | 4.75801 | 2070 ft | 194 kts | 25° |
| 2026-04-28 11:18 | 52.37218 | 4.77142 | 2463 ft | 209 kts | 60° |
| 2026-04-28 11:19 | 52.37474 | 4.79460 | 3220 ft | 213 kts | 96° |
| 2026-04-28 11:19 | 52.37162 | 4.81834 | 4124 ft | 214 kts | 102° |
| 2026-04-28 11:19 | 52.36450 | 4.83999 | 4891 ft | 225 kts | 135° |
| 2026-04-28 11:19 | 52.34993 | 4.85113 | 5395 ft | 252 kts | 167° |
| 2026-04-28 11:20 | 52.33157 | 4.85319 | 5907 ft | 271 kts | 176° |
| 2026-04-28 11:20 | 52.31242 | 4.85258 | 6712 ft | 278 kts | 178° |
| 2026-04-28 11:20 | 52.29301 | 4.85120 | 7541 ft | 281 kts | 179° |
| 2026-04-28 11:20 | 52.27324 | 4.84980 | 8356 ft | 284 kts | 179° |
| 2026-04-28 11:21 | 52.25357 | 4.84864 | 9137 ft | 288 kts | 178° |
| 2026-04-28 11:21 | 52.23340 | 4.84772 | 9912 ft | 291 kts | 178° |
| 2026-04-28 11:21 | 52.21304 | 4.84705 | 10607 ft | 297 kts | 178° |
| 2026-04-28 11:21 | 52.19151 | 4.84655 | 10836 ft | 320 kts | 178° |
| 2026-04-28 11:22 | 52.16853 | 4.84608 | 11132 ft | 339 kts | 178° |
| 2026-04-28 11:22 | 52.14464 | 4.84562 | 11745 ft | 345 kts | 179° |
| 2026-04-28 11:22 | 52.12051 | 4.84516 | 12437 ft | 347 kts | 179° |
| 2026-04-28 11:22 | 52.09621 | 4.84469 | 13124 ft | 350 kts | 179° |
| 2026-04-28 11:23 | 52.07204 | 4.84420 | 13766 ft | 352 kts | 179° |
| 2026-04-28 11:23 | 52.04745 | 4.84366 | 14384 ft | 355 kts | 180° |
| 2026-04-28 11:23 | 52.02266 | 4.83870 | 15011 ft | 360 kts | 191° |
| 2026-04-28 11:23 | 51.99869 | 4.82593 | 15631 ft | 365 kts | 202° |
| 2026-04-28 11:24 | 51.97565 | 4.80789 | 16238 ft | 368 kts | 204° |
| 2026-04-28 11:24 | 51.95260 | 4.78976 | 16891 ft | 368 kts | 204° |
| 2026-04-28 11:24 | 51.93040 | 4.77230 | 17478 ft | 369 kts | 204° |
| 2026-04-28 11:24 | 51.90649 | 4.75353 | 18087 ft | 371 kts | 204° |
| 2026-04-28 11:25 | 51.88320 | 4.73533 | 18643 ft | 373 kts | 204° |
| 2026-04-28 11:25 | 51.85965 | 4.71696 | 19173 ft | 375 kts | 204° |
| 2026-04-28 11:25 | 51.83632 | 4.69877 | 19672 ft | 378 kts | 204° |
| 2026-04-28 11:25 | 51.81257 | 4.68026 | 20172 ft | 381 kts | 204° |
| 2026-04-28 11:26 | 51.78854 | 4.66153 | 20653 ft | 383 kts | 204° |
| 2026-04-28 11:26 | 51.76439 | 4.64272 | 21122 ft | 386 kts | 204° |
| 2026-04-28 11:26 | 51.74006 | 4.62382 | 21584 ft | 388 kts | 204° |
| 2026-04-28 11:26 | 51.71566 | 4.60492 | 22025 ft | 391 kts | 204° |
| 2026-04-28 11:27 | 51.69109 | 4.58595 | 22439 ft | 393 kts | 204° |
| 2026-04-28 11:27 | 51.66633 | 4.56687 | 22860 ft | 396 kts | 204° |
| 2026-04-28 11:27 | 51.64177 | 4.54794 | 23267 ft | 397 kts | 204° |
| 2026-04-28 11:27 | 51.61677 | 4.52863 | 23653 ft | 400 kts | 204° |
| 2026-04-28 11:28 | 51.59147 | 4.50904 | 24042 ft | 402 kts | 204° |
| 2026-04-28 11:28 | 51.56620 | 4.48951 | 24426 ft | 404 kts | 204° |
| 2026-04-28 11:28 | 51.54074 | 4.46991 | 24798 ft | 406 kts | 204° |
| 2026-04-28 11:28 | 51.51517 | 4.45028 | 25165 ft | 408 kts | 204° |
| 2026-04-28 11:29 | 51.48937 | 4.43051 | 25529 ft | 410 kts | 205° |
| 2026-04-28 11:29 | 51.46397 | 4.41104 | 25875 ft | 411 kts | 205° |
| 2026-04-28 11:29 | 51.43806 | 4.39119 | 26216 ft | 413 kts | 205° |
| 2026-04-28 11:29 | 51.41193 | 4.37120 | 26546 ft | 415 kts | 205° |
| 2026-04-28 11:30 | 51.38584 | 4.35129 | 26877 ft | 417 kts | 205° |
| 2026-04-28 11:30 | 51.33325 | 4.31139 | 27544 ft | 420 kts | 205° |
| 2026-04-28 11:30 | 51.30671 | 4.29137 | 27870 ft | 421 kts | 205° |
| 2026-04-28 11:31 | 51.28017 | 4.27130 | 28174 ft | 422 kts | 206° |
| 2026-04-28 11:31 | 51.25362 | 4.25117 | 28473 ft | 423 kts | 206° |
| 2026-04-28 11:31 | 51.22692 | 4.23091 | 28746 ft | 425 kts | 206° |
| 2026-04-28 11:31 | 51.20009 | 4.21054 | 29023 ft | 427 kts | 206° |
| 2026-04-28 11:32 | 51.17359 | 4.19045 | 29299 ft | 428 kts | 206° |
| 2026-04-28 11:32 | 51.14575 | 4.17314 | 29548 ft | 430 kts | 200° |
| 2026-04-28 11:32 | 51.11739 | 4.15756 | 29805 ft | 432 kts | 201° |
| 2026-04-28 11:32 | 51.08887 | 4.14194 | 30055 ft | 433 kts | 201° |
| 2026-04-28 11:33 | 51.06024 | 4.12629 | 30312 ft | 434 kts | 201° |
| 2026-04-28 11:33 | 51.03157 | 4.11066 | 30540 ft | 436 kts | 201° |
| 2026-04-28 11:33 | 51.00318 | 4.09521 | 30841 ft | 435 kts | 201° |
| 2026-04-28 11:33 | 50.97457 | 4.07967 | 31135 ft | 435 kts | 201° |
| 2026-04-28 11:34 | 50.94588 | 4.06404 | 31415 ft | 435 kts | 201° |
| 2026-04-28 11:34 | 50.91724 | 4.04843 | 31682 ft | 435 kts | 201° |
| 2026-04-28 11:34 | 50.88861 | 4.03284 | 31947 ft | 436 kts | 200° |
| 2026-04-28 11:34 | 50.85999 | 4.01670 | 32234 ft | 435 kts | 202° |
| 2026-04-28 11:35 | 50.83181 | 3.99937 | 32511 ft | 435 kts | 204° |
| 2026-04-28 11:35 | 50.80385 | 3.98119 | 32779 ft | 435 kts | 204° |
| 2026-04-28 11:35 | 50.77581 | 3.96253 | 33021 ft | 435 kts | 204° |
| 2026-04-28 11:35 | 50.74822 | 3.94416 | 33276 ft | 435 kts | 204° |
| 2026-04-28 11:36 | 50.72020 | 3.92574 | 33546 ft | 435 kts | 203° |
| 2026-04-28 11:36 | 50.69216 | 3.90762 | 33796 ft | 436 kts | 203° |
| 2026-04-28 11:36 | 50.66402 | 3.88972 | 34065 ft | 435 kts | 202° |
| 2026-04-28 11:36 | 50.63589 | 3.87195 | 34320 ft | 435 kts | 202° |
| 2026-04-28 11:37 | 50.60769 | 3.85418 | 34562 ft | 436 kts | 202° |
| 2026-04-28 11:37 | 50.57948 | 3.83640 | 34790 ft | 436 kts | 203° |
| 2026-04-28 11:37 | 50.55165 | 3.81849 | 35009 ft | 436 kts | 204° |
| 2026-04-28 11:37 | 50.52368 | 3.79971 | 35147 ft | 436 kts | 205° |
| 2026-04-28 11:38 | 50.46834 | 3.76135 | 35173 ft | 434 kts | 205° |
| 2026-04-28 11:38 | 50.41320 | 3.72318 | 35174 ft | 434 kts | 205° |
| 2026-04-28 11:39 | 50.35808 | 3.68574 | 35174 ft | 434 kts | 205° |
| 2026-04-28 11:39 | 50.30267 | 3.64843 | 35165 ft | 433 kts | 205° |
| 2026-04-28 11:40 | 50.24728 | 3.61108 | 35162 ft | 433 kts | 205° |
| 2026-04-28 11:40 | 50.19203 | 3.57374 | 35160 ft | 432 kts | 205° |
| 2026-04-28 11:41 | 50.13704 | 3.53676 | 35160 ft | 433 kts | 204° |
| 2026-04-28 11:41 | 50.08160 | 3.49967 | 35157 ft | 433 kts | 204° |
| 2026-04-28 11:42 | 50.02622 | 3.46269 | 35156 ft | 433 kts | 204° |
| 2026-04-28 11:42 | 49.97072 | 3.42574 | 35154 ft | 433 kts | 205° |
| 2026-04-28 11:43 | 49.91558 | 3.38916 | 35166 ft | 432 kts | 205° |
| 2026-04-28 11:43 | 49.86038 | 3.35251 | 35157 ft | 430 kts | 205° |
| 2026-04-28 11:44 | 49.80520 | 3.31599 | 35150 ft | 430 kts | 205° |
| 2026-04-28 11:44 | 49.75028 | 3.27968 | 35137 ft | 429 kts | 205° |
| 2026-04-28 11:45 | 49.69563 | 3.24367 | 35134 ft | 429 kts | 205° |
| 2026-04-28 11:45 | 49.64072 | 3.20760 | 35134 ft | 428 kts | 205° |
| 2026-04-28 11:46 | 49.58580 | 3.17173 | 35132 ft | 428 kts | 205° |
| 2026-04-28 11:46 | 49.53079 | 3.13588 | 35127 ft | 428 kts | 205° |
| 2026-04-28 11:47 | 49.47689 | 3.09731 | 35122 ft | 425 kts | 214° |
| 2026-04-28 11:47 | 49.42802 | 3.04746 | 35118 ft | 424 kts | 215° |
| 2026-04-28 11:48 | 49.37882 | 2.99751 | 35113 ft | 423 kts | 215° |
| 2026-04-28 11:48 | 49.32953 | 2.94775 | 35112 ft | 424 kts | 215° |
| 2026-04-28 11:49 | 49.28018 | 2.89786 | 35114 ft | 424 kts | 215° |
| 2026-04-28 11:49 | 49.23184 | 2.84910 | 35119 ft | 424 kts | 215° |
| 2026-04-28 11:50 | 49.18257 | 2.79957 | 35119 ft | 423 kts | 215° |
| 2026-04-28 11:50 | 49.13335 | 2.75019 | 35119 ft | 423 kts | 215° |
| 2026-04-28 11:51 | 49.08401 | 2.70079 | 35122 ft | 423 kts | 215° |
| 2026-04-28 11:51 | 49.03501 | 2.65190 | 35119 ft | 423 kts | 215° |
| 2026-04-28 11:52 | 48.98579 | 2.60293 | 35119 ft | 422 kts | 215° |
| 2026-04-28 11:52 | 48.93660 | 2.55406 | 35118 ft | 421 kts | 215° |
| 2026-04-28 11:53 | 48.88773 | 2.50556 | 35121 ft | 421 kts | 215° |
| 2026-04-28 11:53 | 48.83861 | 2.45694 | 35120 ft | 420 kts | 215° |
| 2026-04-28 11:54 | 48.78960 | 2.40858 | 35113 ft | 419 kts | 215° |
| 2026-04-28 11:54 | 48.74090 | 2.36080 | 35110 ft | 419 kts | 215° |
| 2026-04-28 11:55 | 48.69198 | 2.31270 | 35109 ft | 418 kts | 216° |
| 2026-04-28 11:55 | 48.64312 | 2.26465 | 35110 ft | 417 kts | 216° |
| 2026-04-28 11:56 | 48.59441 | 2.21710 | 35107 ft | 417 kts | 215° |
| 2026-04-28 11:56 | 48.54110 | 2.18305 | 35111 ft | 424 kts | 196° |
| 2026-04-28 11:57 | 48.48342 | 2.16450 | 35115 ft | 424 kts | 196° |
| 2026-04-28 11:57 | 48.42563 | 2.14599 | 35119 ft | 423 kts | 196° |
| 2026-04-28 11:58 | 48.36838 | 2.12743 | 35116 ft | 423 kts | 197° |
| 2026-04-28 11:58 | 48.31090 | 2.10891 | 35112 ft | 423 kts | 195° |
| 2026-04-28 11:59 | 48.25136 | 2.10669 | 35108 ft | 434 kts | 177° |
| 2026-04-28 11:59 | 48.19186 | 2.11930 | 35102 ft | 434 kts | 177° |
| 2026-04-28 12:00 | 48.13194 | 2.12911 | 35095 ft | 428 kts | 186° |
| 2026-04-28 12:00 | 48.07325 | 2.11997 | 35084 ft | 423 kts | 192° |
| 2026-04-28 12:01 | 48.02462 | 2.11067 | 35081 ft | 423 kts | 192° |
| 2026-04-28 12:01 | 47.95656 | 2.09788 | 35093 ft | 423 kts | 191° |
| 2026-04-28 12:02 | 47.90797 | 2.08861 | 35098 ft | 422 kts | 192° |
| 2026-04-28 12:02 | 47.84974 | 2.07750 | 35096 ft | 421 kts | 192° |
| 2026-04-28 12:03 | 47.78230 | 2.06467 | 35096 ft | 421 kts | 192° |
| 2026-04-28 12:03 | 47.73361 | 2.05538 | 35095 ft | 421 kts | 192° |
| 2026-04-28 12:04 | 47.67593 | 2.04443 | 35087 ft | 420 kts | 192° |
| 2026-04-28 12:04 | 47.61887 | 2.02800 | 35087 ft | 413 kts | 204° |
| 2026-04-28 12:05 | 47.56573 | 1.99715 | 35084 ft | 412 kts | 205° |
| 2026-04-28 12:05 | 47.51216 | 1.96609 | 35075 ft | 412 kts | 205° |
| 2026-04-28 12:06 | 47.45857 | 1.93508 | 35077 ft | 413 kts | 205° |
| 2026-04-28 12:06 | 47.40518 | 1.90424 | 35076 ft | 413 kts | 205° |
| 2026-04-28 12:07 | 47.35158 | 1.87339 | 35079 ft | 413 kts | 205° |
| 2026-04-28 12:07 | 47.29833 | 1.84278 | 35070 ft | 412 kts | 205° |
| 2026-04-28 12:08 | 47.24473 | 1.81209 | 35069 ft | 412 kts | 205° |
| 2026-04-28 12:08 | 47.19143 | 1.78167 | 35063 ft | 412 kts | 205° |
| 2026-04-28 12:09 | 47.13766 | 1.75126 | 35064 ft | 412 kts | 205° |
| 2026-04-28 12:09 | 47.08429 | 1.72138 | 35060 ft | 412 kts | 205° |
| 2026-04-28 12:10 | 47.03064 | 1.69129 | 35059 ft | 412 kts | 205° |
| 2026-04-28 12:10 | 46.97731 | 1.66132 | 35054 ft | 411 kts | 205° |
| 2026-04-28 12:11 | 46.92374 | 1.63133 | 35050 ft | 411 kts | 205° |
| 2026-04-28 12:11 | 46.87059 | 1.60163 | 35047 ft | 411 kts | 205° |
| 2026-04-28 12:12 | 46.81698 | 1.57180 | 35044 ft | 411 kts | 205° |
| 2026-04-28 12:12 | 46.76338 | 1.54203 | 35040 ft | 411 kts | 205° |
| 2026-04-28 12:13 | 46.71009 | 1.51253 | 35044 ft | 411 kts | 205° |
| 2026-04-28 12:13 | 46.65655 | 1.48287 | 35045 ft | 410 kts | 205° |
| 2026-04-28 12:14 | 46.60340 | 1.45343 | 35046 ft | 410 kts | 205° |
| 2026-04-28 12:14 | 46.54992 | 1.42395 | 35047 ft | 410 kts | 205° |
| 2026-04-28 12:15 | 46.49655 | 1.39470 | 35046 ft | 410 kts | 205° |
| 2026-04-28 12:15 | 46.44341 | 1.36554 | 35045 ft | 410 kts | 205° |
| 2026-04-28 12:16 | 46.39012 | 1.33630 | 35042 ft | 409 kts | 205° |
| 2026-04-28 12:16 | 46.33664 | 1.30707 | 35042 ft | 409 kts | 205° |
| 2026-04-28 12:17 | 46.28357 | 1.27808 | 35041 ft | 409 kts | 205° |
| 2026-04-28 12:17 | 46.23017 | 1.24895 | 35042 ft | 409 kts | 205° |
| 2026-04-28 12:18 | 46.17725 | 1.22031 | 35037 ft | 408 kts | 205° |
| 2026-04-28 12:18 | 46.12391 | 1.19151 | 35035 ft | 408 kts | 205° |
| 2026-04-28 12:19 | 46.07065 | 1.16262 | 35034 ft | 408 kts | 205° |
| 2026-04-28 12:19 | 46.01770 | 1.13401 | 35037 ft | 408 kts | 205° |
| 2026-04-28 12:20 | 45.96443 | 1.10535 | 35036 ft | 408 kts | 205° |
| 2026-04-28 12:20 | 45.91111 | 1.07674 | 35038 ft | 408 kts | 205° |
| 2026-04-28 12:21 | 45.85809 | 1.04830 | 35032 ft | 408 kts | 205° |
| 2026-04-28 12:21 | 45.80720 | 1.01373 | 35035 ft | 401 kts | 218° |
| 2026-04-28 12:22 | 45.76439 | 0.96371 | 35035 ft | 398 kts | 223° |
| 2026-04-28 12:22 | 45.72194 | 0.91286 | 35034 ft | 398 kts | 223° |
| 2026-04-28 12:23 | 45.67941 | 0.86216 | 35032 ft | 399 kts | 222° |
| 2026-04-28 12:23 | 45.63662 | 0.81116 | 35036 ft | 399 kts | 223° |
| 2026-04-28 12:24 | 45.59407 | 0.76051 | 35038 ft | 399 kts | 222° |
| 2026-04-28 12:24 | 45.55136 | 0.70981 | 35034 ft | 399 kts | 222° |
| 2026-04-28 12:25 | 45.50887 | 0.65955 | 35036 ft | 399 kts | 222° |
| 2026-04-28 12:25 | 45.46617 | 0.60898 | 35031 ft | 398 kts | 222° |
| 2026-04-28 12:26 | 45.42336 | 0.55842 | 35030 ft | 398 kts | 222° |
| 2026-04-28 12:26 | 45.38084 | 0.50835 | 35032 ft | 399 kts | 222° |
| 2026-04-28 12:27 | 45.33798 | 0.45800 | 35028 ft | 399 kts | 222° |
| 2026-04-28 12:27 | 45.29537 | 0.40793 | 35026 ft | 399 kts | 222° |
| 2026-04-28 12:28 | 45.25237 | 0.35753 | 35027 ft | 399 kts | 222° |
| 2026-04-28 12:28 | 45.20969 | 0.30774 | 35025 ft | 400 kts | 222° |
| 2026-04-28 12:29 | 45.14511 | 0.23232 | 35022 ft | 400 kts | 222° |
| 2026-04-28 12:30 | 45.10227 | 0.18257 | 35023 ft | 400 kts | 221° |
| 2026-04-28 12:30 | 45.05900 | 0.13254 | 35021 ft | 401 kts | 221° |
| 2026-04-28 12:31 | 45.01609 | 0.08286 | 35024 ft | 401 kts | 221° |
| 2026-04-28 12:31 | 44.97289 | 0.03280 | 35013 ft | 401 kts | 221° |
| 2026-04-28 12:32 | 44.92955 | -0.01718 | 35016 ft | 401 kts | 221° |
| 2026-04-28 12:32 | 44.88640 | -0.06681 | 35006 ft | 403 kts | 222° |
| 2026-04-28 12:33 | 44.84285 | -0.11698 | 34994 ft | 404 kts | 221° |
| 2026-04-28 12:33 | 44.79909 | -0.16721 | 35008 ft | 405 kts | 221° |
| 2026-04-28 12:34 | 44.75531 | -0.21720 | 35001 ft | 405 kts | 221° |
| 2026-04-28 12:34 | 44.71174 | -0.26677 | 35010 ft | 405 kts | 221° |
| 2026-04-28 12:35 | 44.66787 | -0.31684 | 35010 ft | 406 kts | 221° |
| 2026-04-28 12:35 | 44.62010 | -0.35974 | 35008 ft | 410 kts | 211° |
| 2026-04-28 12:36 | 44.56947 | -0.39680 | 35010 ft | 410 kts | 211° |
| 2026-04-28 12:36 | 44.51910 | -0.43375 | 35015 ft | 410 kts | 211° |
| 2026-04-28 12:37 | 44.46853 | -0.47090 | 35013 ft | 410 kts | 211° |
| 2026-04-28 12:37 | 44.41782 | -0.50810 | 35011 ft | 410 kts | 211° |
| 2026-04-28 12:38 | 44.36714 | -0.54513 | 35019 ft | 411 kts | 211° |
| 2026-04-28 12:38 | 44.31677 | -0.58188 | 35021 ft | 411 kts | 211° |
| 2026-04-28 12:39 | 44.26594 | -0.61886 | 35016 ft | 411 kts | 211° |
| 2026-04-28 12:39 | 44.21536 | -0.65554 | 35021 ft | 411 kts | 211° |
| 2026-04-28 12:40 | 44.16464 | -0.69230 | 35024 ft | 410 kts | 211° |
| 2026-04-28 12:40 | 44.11389 | -0.72890 | 35022 ft | 411 kts | 210° |
| 2026-04-28 12:41 | 44.06348 | -0.76534 | 35022 ft | 410 kts | 211° |
| 2026-04-28 12:41 | 44.01284 | -0.80203 | 35022 ft | 410 kts | 211° |
| 2026-04-28 12:42 | 43.96218 | -0.83849 | 35016 ft | 410 kts | 210° |
| 2026-04-28 12:42 | 43.91135 | -0.87494 | 35007 ft | 411 kts | 210° |
| 2026-04-28 12:43 | 43.86045 | -0.91137 | 35003 ft | 411 kts | 210° |
| 2026-04-28 12:43 | 43.80945 | -0.94783 | 35004 ft | 412 kts | 210° |
| 2026-04-28 12:44 | 43.75873 | -0.98407 | 35006 ft | 412 kts | 210° |
| 2026-04-28 12:44 | 43.70767 | -1.02044 | 34999 ft | 412 kts | 210° |
| 2026-04-28 12:45 | 43.65663 | -1.05676 | 34995 ft | 412 kts | 210° |
| 2026-04-28 12:45 | 43.60561 | -1.09300 | 34992 ft | 412 kts | 210° |
| 2026-04-28 12:46 | 43.55482 | -1.12894 | 34996 ft | 412 kts | 210° |
| 2026-04-28 12:46 | 43.50375 | -1.16495 | 34995 ft | 411 kts | 210° |
| 2026-04-28 12:47 | 43.45272 | -1.20092 | 35003 ft | 411 kts | 210° |
| 2026-04-28 12:47 | 43.41028 | -1.23074 | 34996 ft | 411 kts | 210° |
| 2026-04-28 12:48 | 43.35097 | -1.27257 | 34992 ft | 411 kts | 210° |
| 2026-04-28 12:48 | 43.30843 | -1.30249 | 34987 ft | 412 kts | 210° |
| 2026-04-28 12:49 | 43.25736 | -1.33825 | 34987 ft | 412 kts | 209° |
| 2026-04-28 12:49 | 43.20626 | -1.37395 | 34984 ft | 411 kts | 209° |
| 2026-04-28 12:50 | 43.15540 | -1.40951 | 34983 ft | 412 kts | 209° |
| 2026-04-28 12:50 | 43.10419 | -1.44519 | 34984 ft | 413 kts | 209° |
| 2026-04-28 12:51 | 43.05288 | -1.48080 | 34981 ft | 413 kts | 209° |
| 2026-04-28 12:51 | 43.00172 | -1.51643 | 34976 ft | 414 kts | 209° |
| 2026-04-28 12:52 | 42.95035 | -1.55220 | 34972 ft | 414 kts | 209° |
| 2026-04-28 12:52 | 42.89926 | -1.58760 | 34966 ft | 414 kts | 209° |
| 2026-04-28 12:53 | 42.84776 | -1.62325 | 34961 ft | 415 kts | 209° |
| 2026-04-28 12:53 | 42.79606 | -1.65901 | 34959 ft | 416 kts | 209° |
| 2026-04-28 12:54 | 42.74459 | -1.69451 | 34958 ft | 417 kts | 208° |
| 2026-04-28 12:54 | 42.69264 | -1.73001 | 34953 ft | 417 kts | 208° |
| 2026-04-28 12:55 | 42.64071 | -1.76477 | 34951 ft | 418 kts | 208° |
| 2026-04-28 12:55 | 42.58840 | -1.79968 | 34951 ft | 419 kts | 208° |
| 2026-04-28 12:56 | 42.53604 | -1.83478 | 34952 ft | 419 kts | 208° |
| 2026-04-28 12:56 | 42.48387 | -1.86971 | 34947 ft | 420 kts | 208° |
| 2026-04-28 12:57 | 42.43171 | -1.90453 | 34950 ft | 420 kts | 208° |
| 2026-04-28 12:57 | 42.37906 | -1.93966 | 34950 ft | 421 kts | 208° |
| 2026-04-28 12:58 | 42.32637 | -1.97478 | 34950 ft | 422 kts | 208° |
| 2026-04-28 12:58 | 42.27398 | -2.00967 | 34953 ft | 422 kts | 208° |
| 2026-04-28 12:59 | 42.22113 | -2.04472 | 34957 ft | 422 kts | 207° |
| 2026-04-28 12:59 | 42.16859 | -2.07935 | 34958 ft | 423 kts | 207° |
| 2026-04-28 13:00 | 42.11568 | -2.11415 | 34956 ft | 423 kts | 207° |
| 2026-04-28 13:00 | 42.06272 | -2.14910 | 34955 ft | 423 kts | 207° |
| 2026-04-28 13:01 | 42.01008 | -2.18379 | 34952 ft | 423 kts | 207° |
| 2026-04-28 13:01 | 41.95717 | -2.21857 | 34951 ft | 423 kts | 207° |
| 2026-04-28 13:02 | 41.90428 | -2.25322 | 34948 ft | 423 kts | 207° |
| 2026-04-28 13:02 | 41.85125 | -2.28782 | 34952 ft | 423 kts | 207° |
| 2026-04-28 13:03 | 41.79828 | -2.32237 | 34954 ft | 423 kts | 207° |
| 2026-04-28 13:03 | 41.74566 | -2.35678 | 34954 ft | 423 kts | 207° |
| 2026-04-28 13:04 | 41.69257 | -2.39134 | 34745 ft | 424 kts | 207° |
| 2026-04-28 13:04 | 41.66586 | -2.40869 | 34495 ft | 425 kts | 207° |
| 2026-04-28 13:04 | 41.63921 | -2.42597 | 34246 ft | 425 kts | 207° |
| 2026-04-28 13:04 | 41.61255 | -2.44325 | 33558 ft | 428 kts | 207° |
| 2026-04-28 13:05 | 41.58594 | -2.46052 | 32829 ft | 430 kts | 207° |
| 2026-04-28 13:05 | 41.55917 | -2.47784 | 32330 ft | 425 kts | 207° |
| 2026-04-28 13:05 | 41.53259 | -2.49496 | 31762 ft | 423 kts | 207° |
| 2026-04-28 13:05 | 41.50614 | -2.51201 | 31174 ft | 420 kts | 207° |
| 2026-04-28 13:06 | 41.47989 | -2.52895 | 30599 ft | 418 kts | 207° |
| 2026-04-28 13:06 | 41.45377 | -2.54578 | 30027 ft | 415 kts | 207° |
| 2026-04-28 13:06 | 41.42784 | -2.56253 | 29460 ft | 412 kts | 207° |
| 2026-04-28 13:06 | 41.40211 | -2.57916 | 28903 ft | 410 kts | 207° |
| 2026-04-28 13:07 | 41.37681 | -2.59549 | 28353 ft | 407 kts | 207° |
| 2026-04-28 13:07 | 41.35092 | -2.61180 | 27789 ft | 404 kts | 203° |
| 2026-04-28 13:07 | 41.32440 | -2.62264 | 27266 ft | 403 kts | 193° |
| 2026-04-28 13:07 | 41.29649 | -2.62667 | 26730 ft | 402 kts | 182° |
| 2026-04-28 13:08 | 41.26860 | -2.62480 | 26211 ft | 400 kts | 178° |
| 2026-04-28 13:08 | 41.24076 | -2.62227 | 25697 ft | 397 kts | 178° |
| 2026-04-28 13:08 | 41.21329 | -2.61981 | 25203 ft | 393 kts | 178° |
| 2026-04-28 13:08 | 41.18613 | -2.61737 | 24715 ft | 389 kts | 178° |
| 2026-04-28 13:09 | 41.15922 | -2.61497 | 24237 ft | 385 kts | 178° |
| 2026-04-28 13:09 | 41.13291 | -2.61265 | 23767 ft | 381 kts | 178° |
| 2026-04-28 13:09 | 41.10653 | -2.61032 | 23290 ft | 378 kts | 178° |
| 2026-04-28 13:09 | 41.08035 | -2.60799 | 22818 ft | 375 kts | 178° |
| 2026-04-28 13:10 | 41.05443 | -2.60569 | 22345 ft | 372 kts | 178° |
| 2026-04-28 13:10 | 41.02859 | -2.60338 | 21872 ft | 370 kts | 178° |
| 2026-04-28 13:10 | 41.00294 | -2.60110 | 21391 ft | 369 kts | 178° |
| 2026-04-28 13:10 | 40.97772 | -2.59886 | 20923 ft | 367 kts | 178° |
| 2026-04-28 13:11 | 40.95224 | -2.59658 | 20353 ft | 367 kts | 178° |